Time;durP1;ratioP1;P1;durP2;ratioP2;P2;SDS_P1;SDS_P2;PMS_P1;PMS_P2;Temp;Humidity;BMP_temperature;BMP_pressure;BME280_temperature;BME280_humidity;BME280_pressure;Samples;Min_cycle;Max_cycle;Signal;HPM_P1;HPM_P2
2021/05/20 00:00:18;;;;;;;21.10;19.90;;;;;;;;;;5057569;28;20455;-94
2021/05/20 00:02:45;;;;;;;23.00;21.50;;;;;;;;;;5054785;28;20412;-95
2021/05/20 00:05:13;;;;;;;21.77;20.57;;;;;;;;;;5055430;28;20449;-94
2021/05/20 00:07:40;;;;;;;22.20;20.90;;;;;;;;;;5056451;28;20472;-95
2021/05/20 00:10:08;;;;;;;21.27;20.07;;;;;;;;;;5055825;28;20465;-94
2021/05/20 00:12:35;;;;;;;21.77;20.57;;;;;;;;;;5056111;28;20412;-95
2021/05/20 00:15:02;;;;;;;22.70;21.10;;;;;;;;;;5055784;28;20416;-94
2021/05/20 00:17:30;;;;;;;22.30;21.00;;;;;;;;;;5055855;28;20455;-94
2021/05/20 00:19:57;;;;;;;21.80;20.50;;;;;;;;;;5054987;28;20460;-95
2021/05/20 00:22:24;;;;;;;21.13;19.90;;;;;;;;;;5054525;28;20198;-95
2021/05/20 00:24:54;;;;;;;21.40;20.20;;;;;;;;;;5055300;28;20952;-94
2021/05/20 00:27:21;;;;;;;21.83;20.40;;;;;;;;;;5056837;28;20433;-94
2021/05/20 00:29:49;;;;;;;20.80;19.60;;;;;;;;;;5057115;28;20457;-95
2021/05/20 00:32:18;;;;;;;21.97;20.57;;;;;;;;;;5055844;28;20444;-95
2021/05/20 00:34:46;;;;;;;21.80;20.37;;;;;;;;;;5055980;28;20466;-94
2021/05/20 00:37:13;;;;;;;23.37;21.77;;;;;;;;;;5038723;28;20466;-95
2021/05/20 00:39:40;;;;;;;21.50;20.20;;;;;;;;;;5056883;28;20828;-94
2021/05/20 00:42:07;;;;;;;23.00;21.30;;;;;;;;;;5059773;28;20465;-94
2021/05/20 00:44:34;;;;;;;23.50;21.90;;;;;;;;;;5058869;28;20433;-94
2021/05/20 00:47:01;;;;;;;22.37;20.67;;;;;;;;;;5059172;28;20427;-95
2021/05/20 00:49:28;;;;;;;22.43;21.03;;;;;;;;;;5041859;28;20445;-95
2021/05/20 00:51:56;;;;;;;23.47;21.90;;;;;;;;;;5058924;28;20816;-95
2021/05/20 00:54:23;;;;;;;23.47;21.90;;;;;;;;;;5059993;28;20971;-95
2021/05/20 00:56:50;;;;;;;22.90;21.30;;;;;;;;;;5063770;28;20483;-95
2021/05/20 00:59:17;;;;;;;22.50;21.10;;;;;;;;;;5059970;28;20454;-94
2021/05/20 01:01:44;;;;;;;22.20;20.83;;;;;;;;;;5060668;28;20194;-96
2021/05/20 01:04:11;;;;;;;21.60;20.30;;;;;;;;;;5060270;28;20448;-93
2021/05/20 01:06:38;;;;;;;22.70;21.00;;;;;;;;;;5059894;28;20450;-93
2021/05/20 01:09:07;;;;;;;22.47;20.53;;;;;;;;;;5059131;28;20463;-93
2021/05/20 01:11:35;;;;;;;23.03;21.43;;;;;;;;;;5041164;28;20417;-93
2021/05/20 01:14:02;;;;;;;22.50;21.10;;;;;;;;;;5060055;28;20410;-93
2021/05/20 01:16:29;;;;;;;23.23;21.73;;;;;;;;;;5059218;28;20431;-93
2021/05/20 01:18:56;;;;;;;23.13;21.73;;;;;;;;;;5059662;28;20420;-93
2021/05/20 01:21:24;;;;;;;23.23;21.53;;;;;;;;;;5058591;28;20514;-92
2021/05/20 01:23:51;;;;;;;24.73;23.03;;;;;;;;;;5042188;28;20445;-93
2021/05/20 01:26:18;;;;;;;23.00;21.42;;;;;;;;;;5041639;28;20420;-93
2021/05/20 01:28:45;;;;;;;23.30;21.80;;;;;;;;;;5060378;28;20202;-92
2021/05/20 01:31:12;;;;;;;24.00;22.40;;;;;;;;;;5059556;28;20450;-93
2021/05/20 01:33:39;;;;;;;23.63;22.03;;;;;;;;;;5059658;28;20408;-93
2021/05/20 01:36:08;;;;;;;22.77;21.37;;;;;;;;;;5064987;28;20412;-93
2021/05/20 01:38:43;;;;;;;22.43;20.80;;;;;;;;;;5045133;28;20446;-93
2021/05/20 01:41:12;;;;;;;24.07;22.53;;;;;;;;;;5063417;28;20481;-93
2021/05/20 01:43:40;;;;;;;24.00;22.30;;;;;;;;;;5063414;28;20472;-92
2021/05/20 01:46:07;;;;;;;25.17;23.20;;;;;;;;;;5045251;28;20439;-93
2021/05/20 01:48:37;;;;;;;24.02;22.25;;;;;;;;;;5062817;28;20446;-93
2021/05/20 01:51:06;;;;;;;23.55;22.05;;;;;;;;;;5046834;28;20207;-92
2021/05/20 01:53:33;;;;;;;22.57;21.10;;;;;;;;;;5065390;28;20189;-93
2021/05/20 01:56:02;;;;;;;23.02;21.40;;;;;;;;;;5062007;28;20492;-93
2021/05/20 01:58:29;;;;;;;23.17;21.67;;;;;;;;;;5064591;28;20199;-93
2021/05/20 02:00:56;;;;;;;23.60;21.90;;;;;;;;;;5066177;28;20223;-93
2021/05/20 02:03:24;;;;;;;25.20;23.50;;;;;;;;;;5063985;28;20416;-93
2021/05/20 02:05:52;;;;;;;24.08;22.27;;;;;;;;;;5048131;28;20914;-93
2021/05/20 02:08:19;;;;;;;24.15;22.45;;;;;;;;;;5065921;28;20347;-93
2021/05/20 02:10:48;;;;;;;24.90;23.20;;;;;;;;;;5064035;28;20204;-93
2021/05/20 02:13:16;;;;;;;26.58;24.48;;;;;;;;;;5063790;28;20438;-92
2021/05/20 02:15:44;;;;;;;26.05;24.05;;;;;;;;;;5063858;28;20195;-93
2021/05/20 02:18:11;;;;;;;28.33;26.13;;;;;;;;;;5064469;28;20191;-92
2021/05/20 02:20:38;;;;;;;26.60;24.70;;;;;;;;;;5064380;28;20489;-93
2021/05/20 02:23:07;;;;;;;26.53;24.53;;;;;;;;;;5062801;28;20412;-93
2021/05/20 02:25:34;;;;;;;27.07;25.17;;;;;;;;;;5062036;28;20471;-92
2021/05/20 02:28:03;;;;;;;26.30;24.45;;;;;;;;;;5063673;28;20603;-93
2021/05/20 02:30:32;;;;;;;25.55;23.75;;;;;;;;;;5047232;28;20204;-93
2021/05/20 02:32:59;;;;;;;25.50;23.63;;;;;;;;;;5063074;28;20196;-93
2021/05/20 02:35:27;;;;;;;26.63;24.83;;;;;;;;;;5064785;28;20188;-93
2021/05/20 02:37:54;;;;;;;26.97;24.93;;;;;;;;;;5062153;28;20256;-93
2021/05/20 02:40:22;;;;;;;24.77;22.88;;;;;;;;;;5061884;28;20616;-92
2021/05/20 02:42:49;;;;;;;24.20;22.58;;;;;;;;;;5062232;28;20567;-93
2021/05/20 02:45:18;;;;;;;24.98;23.23;;;;;;;;;;5062609;28;20191;-93
2021/05/20 02:47:49;;;;;;;24.83;23.20;;;;;;;;;;5062116;28;20600;-92
2021/05/20 02:50:18;;;;;;;24.30;22.67;;;;;;;;;;5028512;28;20226;-92
2021/05/20 02:52:46;;;;;;;25.00;23.03;;;;;;;;;;5063151;28;20195;-93
2021/05/20 02:55:14;;;;;;;25.50;23.67;;;;;;;;;;5062919;28;20452;-92
2021/05/20 02:57:45;;;;;;;25.58;23.88;;;;;;;;;;5065426;28;20636;-93
2021/05/20 03:00:13;;;;;;;25.58;23.75;;;;;;;;;;5064347;28;20227;-93
2021/05/20 03:02:43;;;;;;;26.13;24.33;;;;;;;;;;5062877;28;20587;-92
2021/05/20 03:05:12;;;;;;;25.42;23.52;;;;;;;;;;5063237;28;20256;-92
2021/05/20 03:07:40;;;;;;;24.73;23.00;;;;;;;;;;5044191;28;20243;-93
2021/05/20 03:10:08;;;;;;;24.48;22.65;;;;;;;;;;5064375;28;20525;-92
2021/05/20 03:12:37;;;;;;;25.98;23.33;;;;;;;;;;5064393;28;20188;-92
2021/05/20 03:15:11;;;;;;;24.23;22.52;;;;;;;;;;5062900;28;20188;-92
2021/05/20 03:17:38;;;;;;;25.50;23.50;;;;;;;;;;5058187;28;20596;-93
2021/05/20 03:20:07;;;;;;;25.07;23.07;;;;;;;;;;5057541;28;20515;-93
2021/05/20 03:22:35;;;;;;;24.03;22.33;;;;;;;;;;5045167;28;20430;-92
2021/05/20 03:25:05;;;;;;;26.42;24.42;;;;;;;;;;5064037;28;20451;-92
2021/05/20 03:27:32;;;;;;;25.40;23.60;;;;;;;;;;5060483;28;20570;-92
2021/05/20 03:29:59;;;;;;;25.87;23.90;;;;;;;;;;5060552;28;20204;-92
2021/05/20 03:32:27;;;;;;;26.80;24.77;;;;;;;;;;5062830;28;20804;-92
2021/05/20 03:34:54;;;;;;;25.63;23.63;;;;;;;;;;5063394;28;20191;-92
2021/05/20 03:37:23;;;;;;;26.53;24.53;;;;;;;;;;5050346;28;20472;-93
2021/05/20 03:39:51;;;;;;;28.80;26.33;;;;;;;;;;5064815;28;20437;-93
2021/05/20 03:42:18;;;;;;;28.63;26.43;;;;;;;;;;5062860;28;20478;-92
2021/05/20 03:44:47;;;;;;;28.85;26.35;;;;;;;;;;5065661;28;20427;-93
2021/05/20 03:47:15;;;;;;;29.10;26.63;;;;;;;;;;5071492;28;20178;-91
2021/05/20 03:49:42;;;;;;;30.90;28.15;;;;;;;;;;5077161;28;20435;-89
2021/05/20 03:52:09;;;;;;;30.30;27.60;;;;;;;;;;5078046;28;20189;-87
2021/05/20 03:54:41;;;;;;;32.50;29.30;;;;;;;;;;5078348;28;20447;-86
2021/05/20 03:57:10;;;;;;;32.23;28.83;;;;;;;;;;5123572;23;20486;-87
2021/05/20 03:59:37;;;;;;;30.53;27.90;;;;;;;;;;5031321;28;20463;-94
2021/05/20 04:02:04;;;;;;;33.80;30.37;;;;;;;;;;5031653;28;20508;-93
2021/05/20 04:04:36;;;;;;;32.70;29.40;;;;;;;;;;5192495;23;20502;-91
2021/05/20 04:09:40;;;;;;;39.80;31.10;;;;;;;;;;5057809;22;20468;-87
2021/05/20 04:15:19;;;;;;;43.77;31.40;;;;;;;;;;5050583;28;20908;-85
2021/05/20 04:20:32;;;;;;;90.17;35.83;;;;;;;;;;5049388;28;20976;-86
2021/05/20 04:23:00;;;;;;;119.17;36.27;;;;;;;;;;5038725;28;20481;-87
2021/05/20 04:25:30;;;;;;;133.50;34.57;;;;;;;;;;5056058;28;20419;-86
2021/05/20 04:27:58;;;;;;;195.27;38.15;;;;;;;;;;5056376;28;20394;-87
2021/05/20 04:33:08;;;;;;;104.77;36.83;;;;;;;;;;5056440;28;20188;-87
2021/05/20 04:35:37;;;;;;;226.35;44.53;;;;;;;;;;5054360;28;20425;-86
2021/05/20 04:45:52;;;;;;;62.43;34.33;;;;;;;;;;5032704;28;20433;-87
2021/05/20 04:48:20;;;;;;;114.53;35.57;;;;;;;;;;5032348;28;20440;-87
2021/05/20 04:51:00;;;;;;;85.43;32.73;;;;;;;;;;5029484;28;20413;-87
2021/05/20 04:53:29;;;;;;;173.30;35.70;;;;;;;;;;5028319;28;20470;-87
2021/05/20 04:55:59;;;;;;;80.73;33.07;;;;;;;;;;5027073;28;20444;-86
2021/05/20 04:58:25;;;;;;;125.73;34.87;;;;;;;;;;5025048;28;20845;-86
2021/05/20 05:00:54;;;;;;;113.97;37.13;;;;;;;;;;5024018;28;20494;-86
2021/05/20 05:03:23;;;;;;;140.97;38.20;;;;;;;;;;5008393;28;20456;-85
2021/05/20 05:05:50;;;;;;;119.93;35.83;;;;;;;;;;5008848;28;20449;-86
2021/05/20 05:08:17;;;;;;;248.13;43.03;;;;;;;;;;5025521;28;20447;-87
2021/05/20 05:10:43;;;;;;;140.53;38.03;;;;;;;;;;5024675;28;20448;-87
2021/05/20 05:16:11;;;;;;;88.50;33.40;;;;;;;;;;5023215;28;20429;-87
2021/05/20 05:18:40;;;;;;;111.27;35.37;;;;;;;;;;5024110;28;20450;-87
2021/05/20 05:21:06;;;;;;;105.17;36.03;;;;;;;;;;5024759;28;20492;-87
2021/05/20 05:23:34;;;;;;;93.93;35.50;;;;;;;;;;5024931;28;20484;-87
2021/05/20 05:26:01;;;;;;;85.00;35.57;;;;;;;;;;5026321;28;20443;-87
2021/05/20 05:28:29;;;;;;;190.63;38.93;;;;;;;;;;5026558;28;20448;-86
2021/05/20 05:30:56;;;;;;;114.47;38.17;;;;;;;;;;5030098;28;20448;-87
2021/05/20 05:33:23;;;;;;;106.80;38.00;;;;;;;;;;5007754;28;20452;-87
2021/05/20 05:35:52;;;;;;;90.77;36.03;;;;;;;;;;5023555;28;20455;-87
2021/05/20 05:38:19;;;;;;;90.63;37.70;;;;;;;;;;5024042;28;20444;-87
2021/05/20 05:40:46;;;;;;;61.60;36.40;;;;;;;;;;5024405;28;20492;-87
2021/05/20 05:43:13;;;;;;;58.17;35.33;;;;;;;;;;5024177;28;20473;-87
2021/05/20 05:48:27;;;;;;;40.80;36.07;;;;;;;;;;4971679;28;20840;-86
2021/05/20 05:50:57;;;;;;;60.87;36.60;;;;;;;;;;4970334;28;20432;-86
2021/05/20 05:53:30;;;;;;;55.80;37.60;;;;;;;;;;5189142;22;20486;-85
2021/05/20 05:55:57;;;;;;;65.53;39.30;;;;;;;;;;5056863;28;20467;-87
2021/05/20 05:58:24;;;;;;;51.30;36.63;;;;;;;;;;5563856;22;20539;-86
2021/05/20 06:00:59;;;;;;;42.10;37.80;;;;;;;;;;5074194;28;20473;-87
2021/05/20 06:03:34;;;;;;;52.67;39.97;;;;;;;;;;5071963;28;20397;-88
2021/05/20 06:06:13;;;;;;;50.37;39.03;;;;;;;;;;5080896;28;20438;-90
2021/05/20 06:08:40;;;;;;;42.27;37.70;;;;;;;;;;5092033;28;20410;-90
2021/05/20 06:11:10;;;;;;;41.10;36.97;;;;;;;;;;5095120;28;20417;-90
2021/05/20 06:19:04;;;;;;;46.03;40.60;;;;;;;;;;5016743;26;20464;-89
2021/05/20 06:21:33;;;;;;;41.33;37.03;;;;;;;;;;5012576;28;20484;-90
2021/05/20 06:24:01;;;;;;;45.27;40.70;;;;;;;;;;5016283;28;20455;-88
2021/05/20 06:26:29;;;;;;;51.80;38.37;;;;;;;;;;5012231;28;20445;-86
2021/05/20 06:28:57;;;;;;;43.03;38.73;;;;;;;;;;5010264;28;20448;-89
2021/05/20 06:31:24;;;;;;;45.00;40.20;;;;;;;;;;5004200;28;20415;-89
2021/05/20 06:33:51;;;;;;;44.40;39.77;;;;;;;;;;4988521;28;20453;-88
2021/05/20 06:36:19;;;;;;;45.33;40.53;;;;;;;;;;5003480;28;20454;-85
2021/05/20 06:38:47;;;;;;;45.73;41.03;;;;;;;;;;5003788;28;20449;-85
2021/05/20 06:41:14;;;;;;;42.23;37.87;;;;;;;;;;5002271;28;20539;-86
2021/05/20 06:43:41;;;;;;;46.73;41.33;;;;;;;;;;5001768;28;20776;-85
2021/05/20 06:46:09;;;;;;;46.43;40.90;;;;;;;;;;5009415;28;20445;-87
2021/05/20 06:48:35;;;;;;;46.30;40.67;;;;;;;;;;5007802;28;20416;-86
2021/05/20 06:51:03;;;;;;;43.37;38.73;;;;;;;;;;4987261;28;20852;-87
2021/05/20 06:53:31;;;;;;;41.80;37.80;;;;;;;;;;5003424;28;20437;-88
2021/05/20 06:56:00;;;;;;;43.10;38.53;;;;;;;;;;5004213;28;20445;-92
2021/05/20 07:01:13;;;;;;;38.93;35.40;;;;;;;;;;5008230;28;20528;-94
2021/05/20 07:03:41;;;;;;;37.83;34.33;;;;;;;;;;5005139;28;20411;-84
2021/05/20 07:06:20;;;;;;;38.97;35.57;;;;;;;;;;5000782;28;20468;-90
2021/05/20 07:08:48;;;;;;;40.30;36.67;;;;;;;;;;5005347;28;20471;-91
2021/05/20 07:11:16;;;;;;;36.30;33.00;;;;;;;;;;4987264;28;20449;-87
2021/05/20 07:13:45;;;;;;;38.30;34.97;;;;;;;;;;5005774;28;20424;-89
2021/05/20 07:16:12;;;;;;;37.07;34.07;;;;;;;;;;4986894;28;20520;-90
2021/05/20 07:18:41;;;;;;;36.63;33.73;;;;;;;;;;5000857;28;20462;-86
2021/05/20 07:21:17;;;;;;;37.97;34.77;;;;;;;;;;5002287;28;20495;-94
2021/05/20 07:23:45;;;;;;;37.17;34.13;;;;;;;;;;5003133;28;20458;-87
2021/05/20 07:26:11;;;;;;;39.37;36.10;;;;;;;;;;5001152;28;20465;-89
2021/05/20 07:28:44;;;;;;;38.90;35.70;;;;;;;;;;5000405;28;20467;-85
2021/05/20 07:31:12;;;;;;;38.30;35.20;;;;;;;;;;5001692;28;20446;-83
2021/05/20 07:33:38;;;;;;;39.83;36.40;;;;;;;;;;5001194;28;20445;-85
2021/05/20 07:36:06;;;;;;;39.63;36.43;;;;;;;;;;4999632;28;20470;-88
2021/05/20 07:38:33;;;;;;;39.00;35.73;;;;;;;;;;5002410;28;20932;-92
2021/05/20 07:41:00;;;;;;;40.10;36.73;;;;;;;;;;4985966;28;20619;-92
2021/05/20 07:43:28;;;;;;;37.80;34.70;;;;;;;;;;4984774;28;20521;-88
2021/05/20 07:45:56;;;;;;;38.00;35.00;;;;;;;;;;5003461;28;20439;-82
2021/05/20 07:48:22;;;;;;;40.00;36.70;;;;;;;;;;5000570;28;20511;-89
2021/05/20 07:50:52;;;;;;;39.80;36.50;;;;;;;;;;5005270;28;20456;-82
2021/05/20 07:53:19;;;;;;;40.10;36.80;;;;;;;;;;5006896;28;20444;-84
2021/05/20 07:55:47;;;;;;;38.67;35.30;;;;;;;;;;4988407;28;20446;-88
2021/05/20 07:58:14;;;;;;;41.77;38.07;;;;;;;;;;5005180;28;20437;-89
2021/05/20 08:00:43;;;;;;;41.67;38.00;;;;;;;;;;5005370;28;20436;-94
2021/05/20 08:03:19;;;;;;;41.07;37.27;;;;;;;;;;5005750;28;20416;-92
2021/05/20 08:05:52;;;;;;;43.03;39.20;;;;;;;;;;5005751;28;20420;-95
2021/05/20 08:08:21;;;;;;;43.20;39.50;;;;;;;;;;5005902;28;20435;-90
2021/05/20 08:10:52;;;;;;;40.40;36.90;;;;;;;;;;5003492;28;20446;-96
2021/05/20 08:13:20;;;;;;;41.60;37.93;;;;;;;;;;5007464;28;20414;-89
2021/05/20 08:15:48;;;;;;;42.40;38.40;;;;;;;;;;5008120;28;20422;-90
2021/05/20 08:18:18;;;;;;;41.10;37.30;;;;;;;;;;5006727;28;20491;-94
2021/05/20 08:20:46;;;;;;;42.10;38.00;;;;;;;;;;4995538;28;20498;-88
2021/05/20 08:23:13;;;;;;;45.50;41.30;;;;;;;;;;5015364;28;20806;-82
2021/05/20 08:25:40;;;;;;;43.30;38.90;;;;;;;;;;5019547;28;20536;-87
2021/05/20 08:28:07;;;;;;;43.83;39.63;;;;;;;;;;5019011;28;20424;-88
2021/05/20 08:30:35;;;;;;;44.43;39.97;;;;;;;;;;5019836;28;20431;-87
2021/05/20 08:33:02;;;;;;;41.60;37.40;;;;;;;;;;5006489;28;20418;-89
2021/05/20 08:35:30;;;;;;;44.83;40.50;;;;;;;;;;5001137;28;20427;-87
2021/05/20 08:38:00;;;;;;;45.07;40.57;;;;;;;;;;5007824;28;20452;-87
2021/05/20 08:40:27;;;;;;;47.40;42.80;;;;;;;;;;5019377;28;20467;-91
2021/05/20 08:43:01;;;;;;;47.63;42.93;;;;;;;;;;5019929;28;20425;-90
2021/05/20 08:45:31;;;;;;;45.37;40.97;;;;;;;;;;5020154;28;20453;-90
2021/05/20 08:48:01;;;;;;;42.70;38.30;;;;;;;;;;5021171;28;20427;-86
2021/05/20 08:50:29;;;;;;;44.20;39.90;;;;;;;;;;5011765;28;20878;-92
2021/05/20 08:52:57;;;;;;;45.60;41.10;;;;;;;;;;5002991;28;20437;-96
2021/05/20 08:55:25;;;;;;;46.53;42.13;;;;;;;;;;5000101;28;20408;-90
2021/05/20 08:57:53;;;;;;;43.83;39.43;;;;;;;;;;5000901;28;20420;-89
2021/05/20 09:00:21;;;;;;;43.60;39.53;;;;;;;;;;5001215;28;20481;-93
2021/05/20 09:02:50;;;;;;;43.63;39.43;;;;;;;;;;5007141;28;20476;-84
2021/05/20 09:05:17;;;;;;;42.17;38.07;;;;;;;;;;5013293;28;20431;-96
2021/05/20 09:07:45;;;;;;;42.10;38.13;;;;;;;;;;5009432;28;20493;-93
2021/05/20 09:10:18;;;;;;;42.20;37.30;;;;;;;;;;5008385;28;20420;-91
2021/05/20 09:12:46;;;;;;;41.43;37.63;;;;;;;;;;5005425;28;20424;-92
2021/05/20 09:15:17;;;;;;;39.40;35.90;;;;;;;;;;5004471;28;20467;-91
2021/05/20 09:17:43;;;;;;;41.67;37.67;;;;;;;;;;5003177;28;20452;-94
2021/05/20 09:20:11;;;;;;;40.83;37.33;;;;;;;;;;5006207;28;20835;-91
2021/05/20 09:22:38;;;;;;;41.13;36.83;;;;;;;;;;5006097;28;20895;-86
2021/05/20 09:25:06;;;;;;;40.43;36.53;;;;;;;;;;5005000;28;20456;-85
2021/05/20 09:27:37;;;;;;;39.10;35.57;;;;;;;;;;5006559;28;20423;-89
2021/05/20 09:30:08;;;;;;;39.70;36.37;;;;;;;;;;5006452;28;20461;-88
2021/05/20 09:32:35;;;;;;;35.83;32.43;;;;;;;;;;5005640;28;20504;-87
2021/05/20 09:35:03;;;;;;;39.17;35.67;;;;;;;;;;5005367;28;20500;-87
2021/05/20 09:37:30;;;;;;;40.97;37.17;;;;;;;;;;5008662;28;20846;-86
2021/05/20 09:40:00;;;;;;;37.57;34.20;;;;;;;;;;5005487;28;20446;-86
2021/05/20 09:42:29;;;;;;;37.83;34.50;;;;;;;;;;5006435;28;20405;-92
2021/05/20 09:45:05;;;;;;;41.70;37.93;;;;;;;;;;5006483;28;20418;-88
2021/05/20 09:47:32;;;;;;;36.53;33.30;;;;;;;;;;5006531;28;20495;-89
2021/05/20 09:50:00;;;;;;;37.70;34.10;;;;;;;;;;5007615;28;20420;-87
2021/05/20 09:52:27;;;;;;;38.37;34.73;;;;;;;;;;5005241;28;20416;-89
2021/05/20 09:54:54;;;;;;;36.37;33.00;;;;;;;;;;5005851;28;20508;-93
2021/05/20 09:57:29;;;;;;;34.97;31.80;;;;;;;;;;5006527;28;20825;-90
2021/05/20 10:00:10;;;;;;;34.20;30.30;;;;;;;;;;5009751;28;20432;-96
2021/05/20 10:02:39;;;;;;;31.77;29.07;;;;;;;;;;5006650;28;20449;-89
2021/05/20 10:05:19;;;;;;;33.70;30.63;;;;;;;;;;5003705;28;20803;-90
2021/05/20 10:07:46;;;;;;;31.73;29.00;;;;;;;;;;4978862;28;20535;-91
2021/05/20 10:10:13;;;;;;;32.40;29.70;;;;;;;;;;4977809;28;20456;-89
2021/05/20 10:12:40;;;;;;;34.80;31.70;;;;;;;;;;4977947;28;20895;-91
2021/05/20 10:15:08;;;;;;;32.47;29.67;;;;;;;;;;4981873;28;20529;-91
2021/05/20 10:17:36;;;;;;;32.07;29.47;;;;;;;;;;4980015;28;20452;-86
2021/05/20 10:20:05;;;;;;;32.60;29.80;;;;;;;;;;4978175;28;20446;-88
2021/05/20 10:22:32;;;;;;;33.73;30.80;;;;;;;;;;4978638;28;20425;-88
2021/05/20 10:25:00;;;;;;;33.60;30.57;;;;;;;;;;4978776;28;20417;-88
2021/05/20 10:27:29;;;;;;;32.03;29.23;;;;;;;;;;4979546;28;20417;-88
2021/05/20 10:29:58;;;;;;;33.63;30.53;;;;;;;;;;4982039;28;20427;-88
2021/05/20 10:32:25;;;;;;;32.43;29.80;;;;;;;;;;4980537;28;20428;-89
2021/05/20 10:34:59;;;;;;;31.90;29.27;;;;;;;;;;4979814;28;20460;-88
2021/05/20 10:37:36;;;;;;;27.13;25.17;;;;;;;;;;4981198;28;20417;-89
2021/05/20 10:40:04;;;;;;;29.23;26.30;;;;;;;;;;4981071;28;20501;-88
2021/05/20 10:42:35;;;;;;;28.53;26.50;;;;;;;;;;4984992;28;20504;-93
2021/05/20 10:45:18;;;;;;;30.37;27.77;;;;;;;;;;4986728;28;20430;-93
2021/05/20 10:48:04;;;;;;;28.97;26.83;;;;;;;;;;4988542;28;20413;-90
2021/05/20 10:50:46;;;;;;;29.40;27.30;;;;;;;;;;4988132;28;20458;-87
2021/05/20 10:53:33;;;;;;;28.00;25.60;;;;;;;;;;4982709;28;20545;-89
2021/05/20 10:56:00;;;;;;;28.83;26.30;;;;;;;;;;4980026;28;20433;-90
2021/05/20 10:58:30;;;;;;;29.17;26.80;;;;;;;;;;4981613;28;20466;-87
2021/05/20 11:00:57;;;;;;;27.63;25.63;;;;;;;;;;4978196;28;20489;-89
2021/05/20 11:03:50;;;;;;;29.00;26.90;;;;;;;;;;4981007;28;20443;-88
2021/05/20 11:06:17;;;;;;;27.57;25.50;;;;;;;;;;4979721;28;20448;-90
2021/05/20 11:08:53;;;;;;;27.67;25.57;;;;;;;;;;4977274;28;20448;-88
2021/05/20 11:11:21;;;;;;;28.63;26.20;;;;;;;;;;4987392;28;20786;-86
2021/05/20 11:13:48;;;;;;;27.10;25.10;;;;;;;;;;4982656;28;20446;-89
2021/05/20 11:16:16;;;;;;;27.40;25.40;;;;;;;;;;4962096;28;20455;-87
2021/05/20 11:18:43;;;;;;;26.20;24.30;;;;;;;;;;4980993;28;20510;-90
2021/05/20 11:21:10;;;;;;;25.27;23.47;;;;;;;;;;4979565;28;20952;-91
2021/05/20 11:23:37;;;;;;;26.93;24.93;;;;;;;;;;4977548;28;20446;-91
2021/05/20 11:26:12;;;;;;;26.73;24.83;;;;;;;;;;4977353;28;20468;-88
2021/05/20 11:28:40;;;;;;;26.47;24.57;;;;;;;;;;4978894;28;20413;-89
2021/05/20 11:31:07;;;;;;;28.53;26.13;;;;;;;;;;4987796;28;20878;-88
2021/05/20 11:33:39;;;;;;;25.93;24.10;;;;;;;;;;4996969;28;20472;-89
2021/05/20 11:36:12;;;;;;;27.67;25.20;;;;;;;;;;5009858;28;20488;-91
2021/05/20 11:38:39;;;;;;;26.27;24.30;;;;;;;;;;5011525;28;20880;-92
2021/05/20 11:41:15;;;;;;;26.90;24.90;;;;;;;;;;4999389;28;20502;-96
2021/05/20 11:43:42;;;;;;;26.57;24.40;;;;;;;;;;5001220;28;20522;-94
2021/05/20 11:46:25;;;;;;;27.13;25.03;;;;;;;;;;4999304;28;20423;-90
2021/05/20 11:48:59;;;;;;;27.20;25.40;;;;;;;;;;4998979;28;20875;-94
2021/05/20 11:51:39;;;;;;;27.63;25.53;;;;;;;;;;4982081;28;20415;-93
2021/05/20 11:54:11;;;;;;;28.73;26.73;;;;;;;;;;4998266;28;20444;-92
2021/05/20 11:56:40;;;;;;;28.00;26.00;;;;;;;;;;4978960;28;20432;-89
2021/05/20 11:59:07;;;;;;;27.37;25.37;;;;;;;;;;4994975;28;20454;-86
2021/05/20 12:01:34;;;;;;;27.60;25.70;;;;;;;;;;4995716;28;20472;-91
2021/05/20 12:04:02;;;;;;;28.40;26.20;;;;;;;;;;4996158;28;20919;-91
2021/05/20 12:06:31;;;;;;;30.70;28.37;;;;;;;;;;4995578;28;20473;-87
2021/05/20 12:09:05;;;;;;;29.37;26.93;;;;;;;;;;4995284;28;20434;-89
2021/05/20 12:11:32;;;;;;;29.93;27.63;;;;;;;;;;4978912;28;20416;-90
2021/05/20 12:14:00;;;;;;;29.67;27.27;;;;;;;;;;4995908;28;20451;-91
2021/05/20 12:16:30;;;;;;;31.07;28.47;;;;;;;;;;4994743;28;20433;-81
2021/05/20 12:18:57;;;;;;;31.37;28.70;;;;;;;;;;4995809;28;20515;-83
2021/05/20 12:21:24;;;;;;;30.80;28.33;;;;;;;;;;4994629;28;20467;-84
2021/05/20 12:23:54;;;;;;;29.60;27.17;;;;;;;;;;4994423;28;20417;-82
2021/05/20 12:26:27;;;;;;;30.50;28.10;;;;;;;;;;4994644;28;20412;-85
2021/05/20 12:28:55;;;;;;;31.00;28.37;;;;;;;;;;4994245;28;20503;-85
2021/05/20 12:31:23;;;;;;;32.90;30.20;;;;;;;;;;4994479;28;20447;-86
2021/05/20 12:33:50;;;;;;;29.40;27.00;;;;;;;;;;4994008;28;20467;-81
2021/05/20 12:36:30;;;;;;;31.53;28.87;;;;;;;;;;4994677;28;20405;-88
2021/05/20 12:38:57;;;;;;;30.90;27.80;;;;;;;;;;4995936;28;20892;-82
2021/05/20 12:41:34;;;;;;;31.60;28.70;;;;;;;;;;4999011;28;20456;-86
2021/05/20 12:44:13;;;;;;;31.33;28.60;;;;;;;;;;4999508;28;20806;-93
2021/05/20 12:46:41;;;;;;;32.43;29.70;;;;;;;;;;5002419;28;20449;-95
2021/05/20 12:49:08;;;;;;;31.33;28.30;;;;;;;;;;5000338;28;20768;-87
2021/05/20 12:51:35;;;;;;;31.20;28.40;;;;;;;;;;5001176;28;20509;-88
2021/05/20 12:54:03;;;;;;;31.23;28.50;;;;;;;;;;5002857;28;20482;-91
2021/05/20 12:56:33;;;;;;;31.87;28.87;;;;;;;;;;4998533;28;20453;-90
2021/05/20 12:59:02;;;;;;;32.20;29.53;;;;;;;;;;5004590;28;20446;-88
2021/05/20 13:01:29;;;;;;;32.07;29.50;;;;;;;;;;4999926;28;20459;-91
2021/05/20 13:03:58;;;;;;;32.67;29.93;;;;;;;;;;5003091;28;20427;-89
2021/05/20 13:06:26;;;;;;;32.20;29.40;;;;;;;;;;4999299;28;20494;-92
2021/05/20 13:08:54;;;;;;;30.10;27.80;;;;;;;;;;4997921;28;20504;-94
2021/05/20 13:11:24;;;;;;;31.57;29.23;;;;;;;;;;4998801;28;20790;-96
2021/05/20 13:13:52;;;;;;;30.50;28.30;;;;;;;;;;4999673;28;20444;-88
2021/05/20 13:16:36;;;;;;;30.03;27.83;;;;;;;;;;5004161;28;20435;-89
2021/05/20 13:24:47;;;;;;;31.13;28.30;;;;;;;;;;5000585;28;20430;-87
2021/05/20 13:27:15;;;;;;;27.70;25.67;;;;;;;;;;4998088;28;20560;-91
2021/05/20 13:29:44;;;;;;;28.40;26.10;;;;;;;;;;4998281;28;20433;-87
2021/05/20 13:32:17;;;;;;;29.47;27.40;;;;;;;;;;4999224;28;20849;-88
2021/05/20 13:34:45;;;;;;;31.83;29.43;;;;;;;;;;5000372;28;20420;-86
2021/05/20 13:37:13;;;;;;;27.20;25.10;;;;;;;;;;4999539;28;20504;-89
2021/05/20 13:39:39;;;;;;;28.60;26.60;;;;;;;;;;4999238;28;21014;-84
2021/05/20 13:42:07;;;;;;;29.20;27.10;;;;;;;;;;5000568;28;20486;-92
2021/05/20 13:44:39;;;;;;;27.80;25.67;;;;;;;;;;5000339;28;20445;-84
2021/05/20 13:47:06;;;;;;;28.00;26.03;;;;;;;;;;4999925;28;20535;-92
2021/05/20 13:49:36;;;;;;;29.10;27.00;;;;;;;;;;5000686;28;20535;-91
2021/05/20 13:52:03;;;;;;;28.40;26.40;;;;;;;;;;4998609;28;20902;-84
2021/05/20 13:54:30;;;;;;;28.50;26.40;;;;;;;;;;4998318;28;20408;-87
2021/05/20 13:56:59;;;;;;;29.10;27.20;;;;;;;;;;4998515;28;20412;-84
2021/05/20 13:59:27;;;;;;;28.63;26.73;;;;;;;;;;4997542;28;20448;-88
2021/05/20 14:01:54;;;;;;;27.87;25.87;;;;;;;;;;5001027;28;20489;-87
2021/05/20 14:04:34;;;;;;;27.50;25.50;;;;;;;;;;5003031;28;20418;-91
2021/05/20 14:07:01;;;;;;;28.40;26.50;;;;;;;;;;4998665;28;20494;-91
2021/05/20 14:09:29;;;;;;;27.80;26.00;;;;;;;;;;4996857;28;20417;-83
2021/05/20 14:11:56;;;;;;;28.43;26.53;;;;;;;;;;4998061;28;20820;-83
2021/05/20 14:14:23;;;;;;;28.30;26.30;;;;;;;;;;4997049;28;20442;-87
2021/05/20 14:16:49;;;;;;;28.50;26.60;;;;;;;;;;5003887;28;20412;-86
2021/05/20 14:19:16;;;;;;;30.17;28.17;;;;;;;;;;5002867;28;20814;-90
2021/05/20 14:21:43;;;;;;;29.00;27.10;;;;;;;;;;4997319;28;20484;-94
2021/05/20 14:24:10;;;;;;;28.07;26.27;;;;;;;;;;4997156;28;20492;-89
2021/05/20 14:26:39;;;;;;;30.47;28.17;;;;;;;;;;4996780;28;20442;-88
2021/05/20 14:29:06;;;;;;;28.67;26.57;;;;;;;;;;4997229;28;20442;-85
2021/05/20 14:31:33;;;;;;;31.50;29.20;;;;;;;;;;4996797;28;20928;-93
2021/05/20 14:34:00;;;;;;;29.77;27.57;;;;;;;;;;4996527;28;20489;-87
2021/05/20 14:36:27;;;;;;;27.90;26.00;;;;;;;;;;4997456;28;20447;-86
2021/05/20 14:38:54;;;;;;;28.03;26.00;;;;;;;;;;4996323;28;20460;-87
2021/05/20 14:41:21;;;;;;;29.57;26.83;;;;;;;;;;4996111;28;20471;-88
2021/05/20 14:43:49;;;;;;;26.97;25.17;;;;;;;;;;4996330;28;20971;-87
2021/05/20 14:46:16;;;;;;;27.50;25.73;;;;;;;;;;4996328;28;20443;-87
2021/05/20 14:48:44;;;;;;;26.40;24.50;;;;;;;;;;4996797;28;20448;-87
2021/05/20 14:51:14;;;;;;;27.60;25.70;;;;;;;;;;4998515;28;20522;-87
2021/05/20 14:53:48;;;;;;;27.00;25.00;;;;;;;;;;4998274;28;20447;-88
2021/05/20 14:56:20;;;;;;;27.00;25.10;;;;;;;;;;4996103;28;20448;-88
2021/05/20 15:07:05;;;;;;;27.17;25.50;;;;;;;;;;4996097;28;20481;-86
2021/05/20 15:09:42;;;;;;;28.13;26.03;;;;;;;;;;4996141;28;20437;-86
2021/05/20 15:12:13;;;;;;;25.93;24.33;;;;;;;;;;4997109;28;20508;-86